Coral Harbour Airport
CYZS : now visible

Airfield :











YOU CAN JOIN US ON...

 
LOGIN :

Register | Disclaimer

   EN    FR    IT 

 









Legend :    VFR   Marginal VFR   IFR   Intensive IFR   Very Intensive IFR
Visi :
Ceiling :
>= 8 km
>= 3000ft
5 to 8 km
1000 to 3000 ft
1500m to 5 km
500 to 1000 ft
800 to 1500m
200 to 500 ft
< 800m
< 200 ft
Symbols :   Thunderstorms  Fog  Heavy snow  Heavy precipitations  Wind > 20 kt






- Airport Elevation : 210 ft
- IATA code : YZS


CYZS - Coral Harbour

CURRENT METAR :
  • 161800Z 36011KT 15SM IC FEW080 M35/M39 A2929 RMK AC1 AC TR SLP934

EXPIRED METARs :
  • 161700Z 35010KT 12SM IC FEW080 M37/M40 A2930 RMK AC1 AC TR SLP935
  • 161600Z 35012KT 12SM IC FEW080 M38/M42 A2930 RMK AC1 AC TR SLP935

TAF TAF CYZS
Valid from the 16 at 13:00 until the 17 at 01:00 UTC


161238Z 1613/1701 02010KT P6SM SKC
TEMPO 1613/1701 4SM IC RMK NXT FCST BY 161900Z



MET'MAP, your aeronautical weather chart ! - Copyright ORBIFLY December 2007 - Disclaimer

ORBIFLY MET'MAP TEAM :

Programming & Development : Alexandra Zaïnal
Concept & original design : Baudouin d'Aumeries
Assistance for programming : Marc-Olivier Méhu
Technical & hardware support : Manuel Goepfert

Contact : metmap@orbifly.com




SOURCES & CREDITS :

   NOAA       Earth
Advisory